Time;durP1;ratioP1;P1;durP2;ratioP2;P2;SDS_P1;SDS_P2;PMS_P1;PMS_P2;Temp;Humidity;BMP_temperature;BMP_pressure;BME280_temperature;BME280_humidity;BME280_pressure;Samples;Min_cycle;Max_cycle;Signal;HPM_P1;HPM_P2
2023/09/11 00:00:44;;;;;;;33.80;27.80;;;;;;;;;;5006073;28;98320;-70
2023/09/11 00:03:10;;;;;;;29.00;25.73;;;;;;;;;;5005620;28;98528;-70
2023/09/11 00:05:37;;;;;;;34.20;26.27;;;;;;;;;;5006132;28;102526;-70
2023/09/11 00:08:07;;;;;;;31.77;26.38;;;;;;;;;;5009088;28;98346;-70
2023/09/11 00:10:35;;;;;;;29.55;26.52;;;;;;;;;;4997856;28;99281;-69
2023/09/11 00:13:02;;;;;;;31.50;27.55;;;;;;;;;;5005929;28;98535;-70
2023/09/11 00:15:32;;;;;;;39.65;27.83;;;;;;;;;;5005602;28;99920;-70
2023/09/11 00:17:59;;;;;;;33.63;27.17;;;;;;;;;;5006374;28;99914;-70
2023/09/11 00:20:26;;;;;;;34.45;27.45;;;;;;;;;;5006048;28;98271;-69
2023/09/11 00:22:52;;;;;;;30.83;27.23;;;;;;;;;;5005592;28;100422;-70
2023/09/11 00:25:19;;;;;;;31.00;26.80;;;;;;;;;;5004949;28;100221;-69
2023/09/11 00:27:45;;;;;;;39.22;27.17;;;;;;;;;;5009428;28;99646;-70
2023/09/11 00:30:12;;;;;;;36.40;26.35;;;;;;;;;;5005455;28;99946;-69
2023/09/11 00:32:38;;;;;;;35.55;27.67;;;;;;;;;;5005954;28;99599;-70
2023/09/11 00:35:05;;;;;;;35.60;27.95;;;;;;;;;;5006177;28;99485;-69
2023/09/11 00:37:31;;;;;;;35.30;26.73;;;;;;;;;;5004997;28;98829;-69
2023/09/11 00:39:58;;;;;;;30.63;26.83;;;;;;;;;;5006500;28;98188;-70
2023/09/11 00:42:24;;;;;;;34.90;26.80;;;;;;;;;;5006252;28;98696;-70
2023/09/11 00:44:51;;;;;;;31.83;27.70;;;;;;;;;;5005632;28;99232;-70
2023/09/11 00:47:17;;;;;;;37.13;28.13;;;;;;;;;;5005727;28;98385;-71
2023/09/11 00:49:44;;;;;;;34.20;27.48;;;;;;;;;;5000651;28;99075;-71
2023/09/11 00:52:11;;;;;;;32.58;27.95;;;;;;;;;;5005275;28;98247;-69
2023/09/11 00:54:37;;;;;;;38.22;28.65;;;;;;;;;;5007437;28;98235;-70
2023/09/11 00:57:04;;;;;;;34.17;25.95;;;;;;;;;;5006480;28;99518;-70
2023/09/11 00:59:31;;;;;;;33.17;26.80;;;;;;;;;;5008840;28;99163;-70
2023/09/11 01:01:59;;;;;;;33.95;27.60;;;;;;;;;;5008918;28;98526;-70
2023/09/11 01:04:28;;;;;;;40.63;27.42;;;;;;;;;;5006860;28;101908;-69
2023/09/11 01:06:54;;;;;;;30.45;26.75;;;;;;;;;;5009524;28;98531;-69
2023/09/11 01:09:21;;;;;;;32.28;26.83;;;;;;;;;;5006813;28;99481;-70
2023/09/11 01:11:48;;;;;;;35.67;26.35;;;;;;;;;;5011158;28;98803;-69
2023/09/11 01:14:14;;;;;;;39.60;27.42;;;;;;;;;;5006874;28;98559;-68
2023/09/11 01:16:41;;;;;;;28.98;25.88;;;;;;;;;;5041169;27;102144;-70
2023/09/11 01:19:16;;;;;;;36.28;25.95;;;;;;;;;;5008552;28;98149;-71
2023/09/11 01:22:05;;;;;;;33.85;25.63;;;;;;;;;;5009101;28;98674;-69
2023/09/11 01:24:41;;;;;;;35.30;25.58;;;;;;;;;;5007208;28;98926;-70
2023/09/11 01:27:14;;;;;;;29.15;25.75;;;;;;;;;;5002353;28;100307;-70
2023/09/11 01:29:41;;;;;;;32.65;26.38;;;;;;;;;;5007278;28;98630;-69
2023/09/11 01:32:08;;;;;;;36.60;25.50;;;;;;;;;;5009044;28;98838;-69
2023/09/11 01:34:35;;;;;;;29.13;25.13;;;;;;;;;;5009757;28;98312;-69
2023/09/11 01:37:01;;;;;;;39.92;26.08;;;;;;;;;;5008844;28;98750;-69
2023/09/11 01:39:28;;;;;;;31.17;25.42;;;;;;;;;;5005951;28;98268;-70
2023/09/11 01:41:58;;;;;;;33.83;26.05;;;;;;;;;;5008670;28;99832;-71
2023/09/11 01:44:29;;;;;;;33.83;25.15;;;;;;;;;;5008584;28;99069;-70
2023/09/11 01:46:57;;;;;;;32.28;24.63;;;;;;;;;;5008178;28;99023;-69
2023/09/11 01:49:24;;;;;;;29.98;25.42;;;;;;;;;;5008411;28;98916;-71
2023/09/11 01:51:51;;;;;;;28.25;25.30;;;;;;;;;;5006992;28;100258;-70
2023/09/11 01:54:18;;;;;;;29.25;25.17;;;;;;;;;;5007478;28;98435;-71
2023/09/11 01:56:46;;;;;;;28.58;25.13;;;;;;;;;;5012388;28;99462;-72
2023/09/11 01:59:14;;;;;;;30.35;24.73;;;;;;;;;;5008195;28;98377;-70
2023/09/11 02:01:42;;;;;;;31.63;25.58;;;;;;;;;;5006674;28;101206;-71
2023/09/11 02:04:09;;;;;;;31.52;26.10;;;;;;;;;;5007865;28;99069;-71
2023/09/11 02:06:35;;;;;;;35.53;24.23;;;;;;;;;;5006709;28;98215;-70
2023/09/11 02:09:02;;;;;;;32.53;25.85;;;;;;;;;;5005102;28;100325;-71
2023/09/11 02:11:28;;;;;;;37.20;25.05;;;;;;;;;;5006196;28;100006;-70
2023/09/11 02:13:55;;;;;;;34.00;26.42;;;;;;;;;;5006594;28;98487;-69
2023/09/11 02:16:21;;;;;;;28.92;24.92;;;;;;;;;;5005160;28;100735;-70
2023/09/11 02:18:48;;;;;;;30.98;25.05;;;;;;;;;;5011397;28;99480;-69
2023/09/11 02:21:14;;;;;;;34.20;25.42;;;;;;;;;;5006600;28;100867;-70
2023/09/11 02:23:41;;;;;;;30.58;25.42;;;;;;;;;;5007645;28;99063;-70
2023/09/11 02:26:08;;;;;;;32.55;25.88;;;;;;;;;;5008103;28;98076;-71
2023/09/11 02:28:35;;;;;;;35.65;24.60;;;;;;;;;;5005471;28;98291;-69
2023/09/11 02:31:02;;;;;;;33.05;24.92;;;;;;;;;;5007894;28;99318;-70
2023/09/11 02:33:28;;;;;;;33.97;25.08;;;;;;;;;;5006255;28;98622;-70
2023/09/11 02:35:56;;;;;;;30.75;24.65;;;;;;;;;;5007344;28;98337;-70
2023/09/11 02:38:22;;;;;;;34.70;25.15;;;;;;;;;;5009294;28;100849;-71
2023/09/11 02:40:49;;;;;;;37.30;25.08;;;;;;;;;;5008200;28;98830;-70
2023/09/11 02:43:34;;;;;;;34.25;25.33;;;;;;;;;;5020302;28;101183;-70
2023/09/11 02:46:01;;;;;;;26.40;23.60;;;;;;;;;;5006595;28;98336;-70
2023/09/11 02:48:27;;;;;;;31.90;25.80;;;;;;;;;;5006010;28;98993;-70
2023/09/11 02:50:54;;;;;;;31.63;25.23;;;;;;;;;;5007548;28;99049;-70
2023/09/11 02:53:21;;;;;;;34.38;26.23;;;;;;;;;;5006654;28;98725;-69
2023/09/11 02:55:48;;;;;;;38.03;25.30;;;;;;;;;;5008697;28;98922;-70
2023/09/11 02:58:14;;;;;;;34.47;25.35;;;;;;;;;;5005283;28;101277;-69
2023/09/11 03:00:41;;;;;;;35.47;26.55;;;;;;;;;;5009782;28;99221;-70
2023/09/11 03:03:07;;;;;;;32.83;25.02;;;;;;;;;;5005958;28;100062;-70
2023/09/11 03:05:34;;;;;;;30.80;24.88;;;;;;;;;;5005111;28;98570;-70
2023/09/11 03:08:04;;;;;;;35.00;25.10;;;;;;;;;;5005370;28;100574;-70
2023/09/11 03:10:31;;;;;;;31.05;24.58;;;;;;;;;;4998746;28;99117;-70
2023/09/11 03:12:58;;;;;;;28.17;24.75;;;;;;;;;;5005249;28;98260;-69
2023/09/11 03:15:26;;;;;;;34.65;25.33;;;;;;;;;;5005373;28;99739;-70
2023/09/11 03:17:53;;;;;;;29.48;23.67;;;;;;;;;;5003970;28;100901;-70
2023/09/11 03:20:20;;;;;;;38.42;25.35;;;;;;;;;;5005452;28;98344;-70
2023/09/11 03:22:47;;;;;;;28.75;24.23;;;;;;;;;;5008843;28;98606;-70
2023/09/11 03:25:14;;;;;;;31.40;24.70;;;;;;;;;;5004848;28;98501;-70
2023/09/11 03:27:43;;;;;;;36.85;25.58;;;;;;;;;;5005680;28;99454;-69
2023/09/11 03:30:10;;;;;;;36.28;24.15;;;;;;;;;;5005245;28;98880;-69
2023/09/11 03:32:39;;;;;;;36.40;23.85;;;;;;;;;;5004597;28;98680;-69
2023/09/11 03:35:06;;;;;;;31.08;25.13;;;;;;;;;;5005892;28;100410;-70
2023/09/11 03:37:33;;;;;;;31.95;24.27;;;;;;;;;;5004302;28;101248;-70
2023/09/11 03:40:00;;;;;;;39.63;25.75;;;;;;;;;;5039046;27;98441;-69
2023/09/11 03:42:27;;;;;;;30.27;23.55;;;;;;;;;;5004080;28;100269;-70
2023/09/11 03:45:03;;;;;;;29.38;24.20;;;;;;;;;;5008747;28;100536;-69
2023/09/11 03:47:30;;;;;;;28.73;24.77;;;;;;;;;;5004045;28;101206;-69
2023/09/11 03:49:57;;;;;;;36.08;25.27;;;;;;;;;;5006985;28;98829;-70
2023/09/11 03:52:23;;;;;;;31.33;24.42;;;;;;;;;;5004878;28;98244;-70
2023/09/11 03:54:50;;;;;;;39.63;23.88;;;;;;;;;;5006625;28;98580;-70
2023/09/11 03:57:16;;;;;;;38.33;25.35;;;;;;;;;;5004727;28;99794;-71
2023/09/11 03:59:43;;;;;;;32.60;24.95;;;;;;;;;;5007468;28;98429;-70
2023/09/11 04:02:10;;;;;;;33.17;24.05;;;;;;;;;;5004336;28;100741;-69
2023/09/11 04:04:36;;;;;;;30.27;23.92;;;;;;;;;;5006800;28;98842;-70
2023/09/11 04:07:03;;;;;;;38.00;24.65;;;;;;;;;;5007677;28;98131;-70
2023/09/11 04:09:32;;;;;;;30.05;25.30;;;;;;;;;;5004738;28;101378;-69
2023/09/11 04:12:03;;;;;;;32.85;24.13;;;;;;;;;;5006186;28;98323;-70
2023/09/11 04:14:30;;;;;;;35.28;26.38;;;;;;;;;;5004349;28;99737;-69
2023/09/11 04:16:56;;;;;;;38.03;24.48;;;;;;;;;;5004852;28;101748;-69
2023/09/11 04:19:23;;;;;;;33.95;24.27;;;;;;;;;;5006378;28;98146;-70
2023/09/11 04:21:49;;;;;;;43.58;24.27;;;;;;;;;;5004861;28;101317;-70
2023/09/11 04:24:16;;;;;;;34.10;25.92;;;;;;;;;;5006467;28;98954;-71
2023/09/11 04:26:44;;;;;;;37.50;24.48;;;;;;;;;;5006511;28;99206;-70
2023/09/11 04:29:12;;;;;;;30.35;22.85;;;;;;;;;;5007226;28;101233;-70
2023/09/11 04:31:40;;;;;;;33.15;24.80;;;;;;;;;;5004022;28;98575;-70
2023/09/11 04:34:06;;;;;;;31.92;24.92;;;;;;;;;;5008559;28;99425;-70
2023/09/11 04:36:33;;;;;;;32.67;23.98;;;;;;;;;;5006859;28;101976;-70
2023/09/11 04:39:00;;;;;;;38.88;25.05;;;;;;;;;;5010623;28;98741;-69
2023/09/11 04:41:26;;;;;;;35.58;24.98;;;;;;;;;;5009188;28;99553;-70
2023/09/11 04:43:53;;;;;;;29.25;23.75;;;;;;;;;;5003643;28;100679;-70
2023/09/11 04:46:20;;;;;;;32.65;24.25;;;;;;;;;;5003669;28;98419;-69
2023/09/11 04:48:46;;;;;;;31.95;25.08;;;;;;;;;;5012960;28;98256;-70
2023/09/11 04:51:13;;;;;;;33.80;24.27;;;;;;;;;;5006535;28;98062;-71
2023/09/11 04:53:39;;;;;;;34.15;23.98;;;;;;;;;;5009617;28;99967;-69
2023/09/11 04:56:07;;;;;;;29.10;23.67;;;;;;;;;;5008608;28;99195;-70
2023/09/11 04:58:33;;;;;;;32.67;25.50;;;;;;;;;;5006838;28;98245;-69
2023/09/11 05:01:00;;;;;;;29.98;23.67;;;;;;;;;;5008034;28;100931;-70
2023/09/11 05:03:27;;;;;;;37.55;25.48;;;;;;;;;;5006537;28;101389;-70
2023/09/11 05:05:54;;;;;;;36.92;24.10;;;;;;;;;;5008054;28;98936;-70
2023/09/11 05:08:20;;;;;;;34.65;23.60;;;;;;;;;;5007461;28;98654;-70
2023/09/11 05:10:47;;;;;;;34.15;23.63;;;;;;;;;;5011572;28;98967;-69
2023/09/11 05:13:14;;;;;;;29.55;24.65;;;;;;;;;;5007190;28;100717;-69
2023/09/11 05:15:41;;;;;;;38.90;24.95;;;;;;;;;;5007705;28;98902;-70
2023/09/11 05:18:07;;;;;;;30.10;24.50;;;;;;;;;;5008645;28;98183;-70
2023/09/11 05:20:34;;;;;;;36.85;24.80;;;;;;;;;;5006478;28;101009;-71
2023/09/11 05:23:00;;;;;;;28.60;23.35;;;;;;;;;;5007102;28;101820;-69
2023/09/11 05:25:27;;;;;;;35.47;24.25;;;;;;;;;;5007837;28;98454;-71
2023/09/11 05:27:53;;;;;;;35.05;23.52;;;;;;;;;;5008593;28;99858;-70
2023/09/11 05:30:20;;;;;;;27.42;23.95;;;;;;;;;;5008833;28;100225;-70
2023/09/11 05:32:52;;;;;;;29.83;24.52;;;;;;;;;;5010850;28;98655;-70
2023/09/11 05:35:19;;;;;;;34.55;25.05;;;;;;;;;;5008147;28;101258;-70
2023/09/11 05:37:46;;;;;;;27.27;23.65;;;;;;;;;;5008284;28;99060;-70
2023/09/11 05:40:12;;;;;;;27.70;24.30;;;;;;;;;;5007833;28;98315;-70
2023/09/11 05:42:39;;;;;;;36.22;25.02;;;;;;;;;;5007592;28;99515;-69
2023/09/11 05:45:06;;;;;;;32.70;23.40;;;;;;;;;;5007950;28;98300;-69
2023/09/11 05:47:33;;;;;;;29.67;24.15;;;;;;;;;;5007451;28;98375;-70
2023/09/11 05:50:00;;;;;;;33.38;24.17;;;;;;;;;;5008336;28;99108;-69
2023/09/11 05:52:27;;;;;;;28.42;23.40;;;;;;;;;;5008129;28;98974;-70
2023/09/11 05:54:54;;;;;;;26.65;22.08;;;;;;;;;;5010892;28;98642;-69
2023/09/11 05:57:20;;;;;;;29.95;21.40;;;;;;;;;;5007960;28;98312;-70
2023/09/11 05:59:47;;;;;;;24.13;20.30;;;;;;;;;;5007979;28;101544;-69
2023/09/11 06:02:13;;;;;;;29.05;19.67;;;;;;;;;;5008315;28;100037;-71
2023/09/11 06:04:39;;;;;;;27.50;19.67;;;;;;;;;;5009134;28;98903;-69
2023/09/11 06:07:06;;;;;;;23.73;19.75;;;;;;;;;;5007380;28;98813;-70
2023/09/11 06:09:32;;;;;;;28.10;19.42;;;;;;;;;;5007143;28;99014;-70
2023/09/11 06:11:59;;;;;;;23.63;19.27;;;;;;;;;;5007566;28;98945;-72
2023/09/11 06:14:28;;;;;;;32.50;18.65;;;;;;;;;;5007026;28;100397;-70
2023/09/11 06:16:55;;;;;;;20.75;17.60;;;;;;;;;;5010937;28;100036;-71
2023/09/11 06:19:21;;;;;;;31.08;18.38;;;;;;;;;;5008329;28;98437;-70
2023/09/11 06:21:47;;;;;;;29.67;18.65;;;;;;;;;;5006636;28;98164;-70
2023/09/11 06:24:14;;;;;;;29.58;18.15;;;;;;;;;;5007702;28;98347;-70
2023/09/11 06:26:41;;;;;;;24.17;17.90;;;;;;;;;;5008104;28;99472;-70
2023/09/11 06:29:08;;;;;;;20.77;16.98;;;;;;;;;;5008394;28;98847;-70
2023/09/11 06:31:35;;;;;;;27.92;16.85;;;;;;;;;;5008800;28;98866;-70
2023/09/11 06:34:04;;;;;;;17.20;14.93;;;;;;;;;;5006957;28;99582;-70
2023/09/11 06:36:31;;;;;;;31.25;15.30;;;;;;;;;;5006967;28;100045;-70
2023/09/11 06:38:57;;;;;;;19.75;16.15;;;;;;;;;;5011369;28;98116;-69
2023/09/11 06:41:24;;;;;;;23.63;15.00;;;;;;;;;;5007296;28;99376;-70
2023/09/11 06:43:50;;;;;;;20.23;14.30;;;;;;;;;;5007020;28;98321;-70
2023/09/11 06:46:17;;;;;;;18.73;14.73;;;;;;;;;;5007455;28;98699;-70
2023/09/11 06:48:43;;;;;;;21.25;14.07;;;;;;;;;;5007061;28;99014;-70
2023/09/11 06:51:10;;;;;;;15.90;13.05;;;;;;;;;;5007453;28;98807;-69
2023/09/11 06:53:37;;;;;;;14.07;12.55;;;;;;;;;;5007474;28;99266;-69
2023/09/11 06:56:05;;;;;;;21.33;12.75;;;;;;;;;;5006437;28;98917;-69
2023/09/11 06:58:31;;;;;;;23.50;12.80;;;;;;;;;;5005916;28;98218;-71
2023/09/11 07:00:58;;;;;;;21.10;13.10;;;;;;;;;;5007613;28;100191;-70
2023/09/11 07:03:24;;;;;;;17.35;11.68;;;;;;;;;;5006139;28;98254;-70
2023/09/11 07:05:51;;;;;;;14.25;10.30;;;;;;;;;;5007052;28;98714;-70
2023/09/11 07:08:18;;;;;;;11.90;10.30;;;;;;;;;;5006257;28;100395;-70
2023/09/11 07:10:49;;;;;;;12.82;10.75;;;;;;;;;;5006720;28;98541;-71
2023/09/11 07:13:16;;;;;;;15.32;10.27;;;;;;;;;;5005807;28;100100;-71
2023/09/11 07:15:42;;;;;;;15.55;10.02;;;;;;;;;;5006911;28;99098;-70
2023/09/11 07:18:09;;;;;;;17.35;10.00;;;;;;;;;;5006613;28;98295;-70
2023/09/11 07:20:35;;;;;;;17.80;10.63;;;;;;;;;;5009559;28;99050;-71
2023/09/11 07:23:02;;;;;;;21.23;10.80;;;;;;;;;;5006004;28;100150;-70
2023/09/11 07:25:28;;;;;;;15.60;9.80;;;;;;;;;;5005870;28;99733;-70
2023/09/11 07:27:54;;;;;;;26.05;10.65;;;;;;;;;;5004965;28;99983;-69
2023/09/11 07:30:21;;;;;;;21.95;11.30;;;;;;;;;;5006016;28;98658;-70
2023/09/11 07:32:48;;;;;;;22.17;10.68;;;;;;;;;;5006246;28;98520;-70
2023/09/11 07:35:15;;;;;;;16.65;10.07;;;;;;;;;;5006480;28;100051;-70
2023/09/11 07:37:41;;;;;;;25.48;10.80;;;;;;;;;;5002560;28;98257;-70
2023/09/11 07:40:08;;;;;;;16.73;10.07;;;;;;;;;;5006484;28;98525;-70
2023/09/11 07:42:36;;;;;;;24.38;10.93;;;;;;;;;;5008525;28;99082;-70
2023/09/11 07:45:03;;;;;;;23.85;10.68;;;;;;;;;;5008066;27;98498;-70
2023/09/11 07:47:29;;;;;;;19.77;10.40;;;;;;;;;;5005065;28;99918;-70
2023/09/11 07:49:56;;;;;;;27.15;13.85;;;;;;;;;;5006533;28;98260;-69
2023/09/11 07:52:22;;;;;;;15.77;10.50;;;;;;;;;;5005085;28;99349;-69
2023/09/11 07:54:49;;;;;;;15.27;10.05;;;;;;;;;;5006524;28;99040;-70
2023/09/11 07:57:16;;;;;;;12.02;9.93;;;;;;;;;;5006167;28;98299;-70
2023/09/11 07:59:43;;;;;;;20.63;10.00;;;;;;;;;;5005808;28;99531;-70
2023/09/11 08:02:09;;;;;;;16.75;10.07;;;;;;;;;;5006254;28;99287;-70
2023/09/11 08:04:36;;;;;;;15.35;9.60;;;;;;;;;;5009927;28;98232;-70
2023/09/11 08:07:04;;;;;;;12.32;8.90;;;;;;;;;;5005920;28;99078;-70
2023/09/11 08:09:31;;;;;;;16.95;9.55;;;;;;;;;;5009951;28;98271;-70
2023/09/11 08:11:57;;;;;;;10.98;9.13;;;;;;;;;;5008335;28;99409;-69
2023/09/11 08:14:24;;;;;;;15.90;8.98;;;;;;;;;;5009330;28;99099;-70
2023/09/11 08:16:51;;;;;;;16.60;8.48;;;;;;;;;;5009691;28;98220;-70
2023/09/11 08:19:17;;;;;;;25.00;8.23;;;;;;;;;;5009109;28;98373;-70
2023/09/11 08:21:44;;;;;;;13.75;8.13;;;;;;;;;;5008607;28;99010;-70
2023/09/11 08:24:10;;;;;;;16.48;8.98;;;;;;;;;;5010051;28;98426;-70
2023/09/11 08:26:38;;;;;;;18.48;8.40;;;;;;;;;;5012781;28;100054;-70
2023/09/11 08:29:06;;;;;;;18.35;7.90;;;;;;;;;;5009736;28;98679;-72
2023/09/11 08:31:33;;;;;;;13.20;8.15;;;;;;;;;;5009073;28;98753;-69
2023/09/11 08:33:59;;;;;;;12.63;7.82;;;;;;;;;;5001444;28;100646;-69
2023/09/11 08:36:26;;;;;;;10.60;6.85;;;;;;;;;;5007820;28;98252;-70
2023/09/11 08:38:53;;;;;;;16.45;7.88;;;;;;;;;;5009513;28;99477;-69
2023/09/11 08:41:22;;;;;;;16.02;6.90;;;;;;;;;;5008982;28;99922;-70
2023/09/11 08:43:49;;;;;;;13.27;7.20;;;;;;;;;;5010152;28;98272;-70
2023/09/11 08:46:16;;;;;;;12.40;6.82;;;;;;;;;;5008814;28;98627;-69
2023/09/11 08:48:44;;;;;;;8.18;5.80;;;;;;;;;;5011695;28;98395;-69
2023/09/11 08:51:12;;;;;;;6.93;5.70;;;;;;;;;;5009045;28;99289;-70
2023/09/11 08:53:41;;;;;;;10.35;5.90;;;;;;;;;;5006551;28;100181;-69
2023/09/11 08:56:09;;;;;;;8.88;5.10;;;;;;;;;;5008811;28;98015;-69
2023/09/11 08:58:36;;;;;;;7.38;5.38;;;;;;;;;;5009047;28;99341;-71
2023/09/11 09:01:02;;;;;;;13.30;5.22;;;;;;;;;;5008456;28;99079;-70
2023/09/11 09:03:29;;;;;;;16.17;5.60;;;;;;;;;;5007893;28;98336;-70
2023/09/11 09:05:56;;;;;;;6.47;5.82;;;;;;;;;;5009176;28;99449;-70
2023/09/11 09:08:23;;;;;;;13.95;7.50;;;;;;;;;;5011844;28;99772;-69
2023/09/11 09:10:50;;;;;;;9.75;5.53;;;;;;;;;;5008087;28;98632;-70
2023/09/11 09:13:17;;;;;;;11.10;6.10;;;;;;;;;;5008232;28;99120;-70
2023/09/11 09:15:44;;;;;;;10.32;5.82;;;;;;;;;;5008924;28;98296;-70
2023/09/11 09:18:11;;;;;;;11.18;6.28;;;;;;;;;;5007719;28;98424;-70
2023/09/11 09:20:38;;;;;;;11.52;6.72;;;;;;;;;;5009039;28;99282;-70
2023/09/11 09:23:06;;;;;;;13.45;5.95;;;;;;;;;;5008368;28;98663;-70
2023/09/11 09:25:33;;;;;;;6.20;5.35;;;;;;;;;;5007225;28;99775;-70
2023/09/11 09:27:59;;;;;;;9.38;6.65;;;;;;;;;;5008385;28;99751;-70
2023/09/11 09:30:27;;;;;;;8.43;6.32;;;;;;;;;;5012175;28;99179;-70
2023/09/11 09:32:54;;;;;;;7.35;4.90;;;;;;;;;;5007671;28;99186;-71
2023/09/11 09:35:22;;;;;;;6.35;5.80;;;;;;;;;;5008540;28;98514;-69
2023/09/11 09:37:52;;;;;;;7.15;5.40;;;;;;;;;;5007960;28;98553;-69
2023/09/11 09:40:33;;;;;;;9.70;5.13;;;;;;;;;;5008010;28;99163;-71
2023/09/11 09:43:00;;;;;;;7.53;4.88;;;;;;;;;;5008787;28;98298;-69
2023/09/11 09:45:27;;;;;;;8.88;5.15;;;;;;;;;;5007661;28;99612;-70
2023/09/11 09:48:07;;;;;;;9.68;5.13;;;;;;;;;;5008095;28;100254;-70
2023/09/11 09:50:53;;;;;;;11.40;5.18;;;;;;;;;;5001977;28;98274;-69
2023/09/11 09:53:24;;;;;;;9.85;5.43;;;;;;;;;;5010571;28;99888;-70
2023/09/11 09:55:51;;;;;;;8.13;5.32;;;;;;;;;;5009061;28;98221;-72
2023/09/11 09:58:18;;;;;;;9.68;5.60;;;;;;;;;;5008149;28;99480;-69
2023/09/11 10:00:44;;;;;;;9.38;4.15;;;;;;;;;;5007693;28;100043;-69
2023/09/11 10:03:11;;;;;;;7.60;4.18;;;;;;;;;;5008241;28;98708;-71
2023/09/11 10:05:40;;;;;;;7.35;4.50;;;;;;;;;;5008398;28;99190;-70
2023/09/11 10:08:07;;;;;;;11.10;3.95;;;;;;;;;;5007066;28;98915;-69
2023/09/11 10:10:35;;;;;;;5.72;3.47;;;;;;;;;;5008106;28;98279;-69
2023/09/11 10:13:05;;;;;;;11.10;3.83;;;;;;;;;;5005904;28;100489;-71
2023/09/11 10:15:32;;;;;;;9.88;3.70;;;;;;;;;;5010369;28;100172;-70
2023/09/11 10:17:59;;;;;;;6.25;4.10;;;;;;;;;;5008025;28;98938;-69
2023/09/11 10:20:26;;;;;;;12.70;4.25;;;;;;;;;;5006474;28;99125;-69
2023/09/11 10:22:54;;;;;;;11.25;4.45;;;;;;;;;;5008297;28;98014;-70
2023/09/11 10:25:24;;;;;;;10.45;4.47;;;;;;;;;;5007568;28;98866;-69
2023/09/11 10:27:55;;;;;;;5.70;4.20;;;;;;;;;;5007106;28;99352;-70
2023/09/11 10:30:24;;;;;;;4.45;3.97;;;;;;;;;;5006534;28;98497;-70
2023/09/11 10:32:59;;;;;;;6.53;4.43;;;;;;;;;;5007882;28;98859;-70
2023/09/11 10:35:31;;;;;;;4.95;4.13;;;;;;;;;;5006344;28;99018;-70
2023/09/11 10:37:57;;;;;;;5.22;4.53;;;;;;;;;;5010710;28;98237;-69
2023/09/11 10:40:29;;;;;;;6.85;3.90;;;;;;;;;;5006471;28;98801;-69
2023/09/11 10:42:55;;;;;;;9.13;3.60;;;;;;;;;;5006963;28;98228;-71
2023/09/11 10:45:28;;;;;;;7.65;3.67;;;;;;;;;;5007510;28;98736;-69
2023/09/11 10:47:55;;;;;;;11.02;3.83;;;;;;;;;;5007984;28;98919;-70
2023/09/11 10:50:38;;;;;;;4.88;3.13;;;;;;;;;;5006565;28;98278;-70
2023/09/11 10:53:05;;;;;;;8.48;3.97;;;;;;;;;;5007540;28;99616;-70
2023/09/11 10:55:32;;;;;;;9.40;4.75;;;;;;;;;;5006898;28;99946;-70
2023/09/11 10:58:02;;;;;;;4.55;4.10;;;;;;;;;;5012465;28;98796;-69
2023/09/11 11:00:28;;;;;;;3.40;3.08;;;;;;;;;;5006717;28;99207;-70
2023/09/11 11:02:57;;;;;;;3.05;2.75;;;;;;;;;;5007034;28;98952;-70
2023/09/11 11:05:25;;;;;;;8.55;3.88;;;;;;;;;;5006238;28;99470;-70
2023/09/11 11:07:55;;;;;;;5.50;3.40;;;;;;;;;;5007542;28;99232;-70
2023/09/11 11:10:21;;;;;;;6.45;3.10;;;;;;;;;;5005941;28;99770;-70
2023/09/11 11:12:48;;;;;;;4.00;3.40;;;;;;;;;;5002336;28;99974;-70
2023/09/11 11:15:19;;;;;;;4.47;3.88;;;;;;;;;;5007109;28;99928;-70
2023/09/11 11:17:45;;;;;;;5.95;3.47;;;;;;;;;;5005882;28;98372;-70
2023/09/11 11:20:19;;;;;;;5.47;3.53;;;;;;;;;;5010173;28;98912;-69
2023/09/11 11:22:45;;;;;;;4.93;3.58;;;;;;;;;;5006971;28;98367;-69
2023/09/11 11:25:12;;;;;;;6.50;3.00;;;;;;;;;;5006290;28;98573;-69
2023/09/11 11:27:41;;;;;;;8.88;3.17;;;;;;;;;;5006569;28;100195;-70
2023/09/11 11:30:08;;;;;;;4.57;2.85;;;;;;;;;;5006144;28;98304;-70
2023/09/11 11:32:36;;;;;;;8.90;3.22;;;;;;;;;;5006269;28;98402;-70
2023/09/11 11:35:04;;;;;;;4.82;2.95;;;;;;;;;;5006547;28;99298;-69
2023/09/11 11:37:32;;;;;;;6.60;3.22;;;;;;;;;;5005774;28;98700;-70
2023/09/11 11:39:59;;;;;;;4.30;2.85;;;;;;;;;;5007079;28;99492;-71
2023/09/11 11:42:26;;;;;;;5.28;3.30;;;;;;;;;;5009362;28;100726;-69
2023/09/11 11:44:53;;;;;;;8.60;2.92;;;;;;;;;;5005719;28;98544;-69
2023/09/11 11:47:20;;;;;;;5.65;3.10;;;;;;;;;;5006383;28;99102;-70
2023/09/11 11:49:49;;;;;;;5.50;3.13;;;;;;;;;;5006865;28;98766;-71
2023/09/11 11:52:15;;;;;;;3.45;2.80;;;;;;;;;;5005546;28;99398;-70
2023/09/11 11:54:42;;;;;;;4.63;3.38;;;;;;;;;;5005811;28;99803;-70
2023/09/11 11:57:08;;;;;;;5.65;3.08;;;;;;;;;;5006255;28;98356;-70
2023/09/11 11:59:39;;;;;;;6.05;2.78;;;;;;;;;;5005928;28;99843;-70
2023/09/11 12:02:17;;;;;;;6.47;2.95;;;;;;;;;;5006439;28;99904;-70
2023/09/11 12:04:46;;;;;;;6.47;3.03;;;;;;;;;;5009438;28;99226;-69
2023/09/11 12:07:16;;;;;;;6.65;3.08;;;;;;;;;;5005492;28;99170;-68
2023/09/11 12:09:42;;;;;;;4.53;2.58;;;;;;;;;;5005989;28;98296;-70
2023/09/11 12:12:09;;;;;;;3.47;2.20;;;;;;;;;;5006361;28;99793;-70
2023/09/11 12:14:36;;;;;;;3.45;2.60;;;;;;;;;;5005512;28;99940;-71
2023/09/11 12:17:07;;;;;;;11.05;2.85;;;;;;;;;;5006453;28;98151;-69
2023/09/11 12:19:33;;;;;;;2.65;2.45;;;;;;;;;;5004681;28;98947;-70
2023/09/11 12:22:00;;;;;;;3.10;2.08;;;;;;;;;;5005723;28;99869;-69
2023/09/11 12:24:26;;;;;;;3.20;2.25;;;;;;;;;;5005868;28;98216;-69
2023/09/11 12:26:53;;;;;;;3.85;2.72;;;;;;;;;;5008455;28;98882;-69
2023/09/11 12:29:19;;;;;;;3.95;2.40;;;;;;;;;;5006278;28;98904;-70
2023/09/11 12:31:46;;;;;;;2.88;2.22;;;;;;;;;;5005641;28;98544;-71
2023/09/11 12:34:12;;;;;;;5.70;2.88;;;;;;;;;;5005008;28;100246;-68
2023/09/11 12:36:41;;;;;;;9.68;2.85;;;;;;;;;;5006010;28;98321;-69
2023/09/11 12:39:07;;;;;;;3.15;2.83;;;;;;;;;;5006288;28;98905;-69
2023/09/11 12:41:34;;;;;;;3.65;2.63;;;;;;;;;;5004664;28;98866;-70
2023/09/11 12:44:01;;;;;;;3.15;2.83;;;;;;;;;;5004879;28;98690;-68
2023/09/11 12:46:27;;;;;;;5.78;3.10;;;;;;;;;;5005566;28;99364;-69
2023/09/11 12:48:54;;;;;;;7.63;3.55;;;;;;;;;;5008776;28;99289;-70
2023/09/11 12:51:21;;;;;;;4.60;2.75;;;;;;;;;;5005142;28;99666;-69
2023/09/11 12:53:47;;;;;;;3.70;3.15;;;;;;;;;;5003939;28;98997;-69
2023/09/11 12:56:18;;;;;;;3.80;2.97;;;;;;;;;;5008937;28;98646;-69
2023/09/11 12:58:45;;;;;;;3.03;2.73;;;;;;;;;;5009826;28;99842;-71
2023/09/11 13:01:12;;;;;;;9.50;3.88;;;;;;;;;;5009150;28;100340;-70
2023/09/11 13:03:45;;;;;;;5.03;3.50;;;;;;;;;;5008521;28;98339;-70
2023/09/11 13:06:12;;;;;;;4.78;3.38;;;;;;;;;;5008492;28;98607;-70
2023/09/11 13:08:40;;;;;;;17.45;3.83;;;;;;;;;;5010567;28;99087;-70
2023/09/11 13:11:06;;;;;;;6.35;4.30;;;;;;;;;;5008974;28;99031;-70
2023/09/11 13:13:32;;;;;;;5.68;3.83;;;;;;;;;;5008051;28;99582;-70
2023/09/11 13:16:01;;;;;;;7.85;3.65;;;;;;;;;;5008309;28;98903;-70
2023/09/11 13:18:28;;;;;;;10.80;4.00;;;;;;;;;;5008299;28;99605;-70
2023/09/11 13:20:55;;;;;;;11.07;4.35;;;;;;;;;;5008788;28;100412;-70
2023/09/11 13:23:21;;;;;;;6.88;4.63;;;;;;;;;;5007716;28;98256;-70
2023/09/11 13:25:48;;;;;;;5.82;4.43;;;;;;;;;;5009512;28;98534;-69
2023/09/11 13:28:14;;;;;;;7.97;4.53;;;;;;;;;;5008105;28;99844;-70
2023/09/11 13:30:41;;;;;;;5.05;3.97;;;;;;;;;;5011529;28;98242;-69
2023/09/11 13:33:07;;;;;;;9.52;4.82;;;;;;;;;;5007760;28;99983;-70
2023/09/11 13:35:34;;;;;;;6.55;4.50;;;;;;;;;;5008859;28;98217;-68
2023/09/11 13:38:02;;;;;;;10.27;5.47;;;;;;;;;;5008381;28;99475;-70
2023/09/11 13:40:29;;;;;;;5.60;4.53;;;;;;;;;;5007987;28;100201;-70
2023/09/11 13:42:55;;;;;;;7.63;4.60;;;;;;;;;;5008690;28;98321;-69
2023/09/11 13:45:22;;;;;;;9.90;5.05;;;;;;;;;;5007531;28;99401;-71
2023/09/11 13:47:49;;;;;;;12.25;5.43;;;;;;;;;;5008657;28;100590;-70
2023/09/11 13:50:16;;;;;;;10.85;6.45;;;;;;;;;;5008715;28;98712;-70
2023/09/11 13:52:42;;;;;;;9.85;6.20;;;;;;;;;;5010789;28;98536;-70
2023/09/11 13:55:09;;;;;;;11.88;6.78;;;;;;;;;;5008092;28;98385;-71
2023/09/11 13:57:36;;;;;;;10.15;6.68;;;;;;;;;;5007024;28;99991;-70
2023/09/11 14:00:04;;;;;;;10.73;6.47;;;;;;;;;;5007793;28;99932;-69
2023/09/11 14:02:37;;;;;;;13.85;6.53;;;;;;;;;;5005981;28;98083;-70
2023/09/11 14:05:04;;;;;;;9.30;7.20;;;;;;;;;;5006330;28;99453;-70
2023/09/11 14:07:33;;;;;;;18.13;7.72;;;;;;;;;;5007263;28;99962;-70
2023/09/11 14:10:00;;;;;;;11.57;6.72;;;;;;;;;;5009192;28;98261;-70
2023/09/11 14:12:26;;;;;;;13.15;6.72;;;;;;;;;;5007880;28;99762;-69
2023/09/11 14:14:53;;;;;;;16.17;6.80;;;;;;;;;;5011440;28;98961;-70
2023/09/11 14:17:19;;;;;;;12.75;7.20;;;;;;;;;;5007960;28;99186;-69
2023/09/11 14:19:46;;;;;;;9.82;6.40;;;;;;;;;;5007137;28;99176;-69
2023/09/11 14:22:12;;;;;;;7.57;6.30;;;;;;;;;;5007033;28;98240;-70
2023/09/11 14:24:39;;;;;;;15.80;7.90;;;;;;;;;;5008049;28;99379;-69